createdAt,value
2023-01-29T00:02:12.272Z,31.23
2023-01-29T00:04:40.435Z,30.50
2023-01-29T00:07:08.615Z,29.92
2023-01-29T00:09:36.734Z,30.38
2023-01-29T00:12:04.919Z,29.90
2023-01-29T00:14:33.103Z,29.40
2023-01-29T00:17:01.162Z,28.95
2023-01-29T00:19:30.644Z,27.90
2023-01-29T00:21:58.710Z,28.20
2023-01-29T00:24:27.017Z,28.52
2023-01-29T00:26:55.099Z,27.40
2023-01-29T00:29:23.242Z,26.95
2023-01-29T00:31:51.394Z,26.92
2023-01-29T00:34:19.616Z,27.75
2023-01-29T00:36:49.065Z,26.63
2023-01-29T00:39:17.167Z,26.40
2023-01-29T00:42:02.411Z,27.40
2023-01-29T00:44:48.070Z,26.20
2023-01-29T00:47:34.621Z,25.05
2023-01-29T00:50:03.107Z,25.65
2023-01-29T00:52:32.569Z,26.33
2023-01-29T00:55:01.331Z,25.27
2023-01-29T00:57:30.132Z,24.10
2023-01-29T00:59:58.340Z,24.83
2023-01-29T01:02:43.910Z,25.52
2023-01-29T01:05:14.272Z,24.30
2023-01-29T01:07:44.900Z,24.88
2023-01-29T01:10:22.743Z,24.70
2023-01-29T01:12:52.292Z,25.08
2023-01-29T01:15:20.616Z,24.48
2023-01-29T01:17:49.697Z,24.42
2023-01-29T01:20:18.217Z,23.55
2023-01-29T01:22:47.845Z,24.65
2023-01-29T01:25:17.671Z,23.70
2023-01-29T01:27:45.842Z,23.80
2023-01-29T01:30:14.871Z,23.63
2023-01-29T01:32:43.329Z,22.52
2023-01-29T01:35:11.727Z,23.25
2023-01-29T01:37:39.796Z,23.23
2023-01-29T01:40:12.937Z,22.95
2023-01-29T01:42:41.273Z,22.88
2023-01-29T01:45:15.939Z,22.20
2023-01-29T01:47:47.574Z,22.48
2023-01-29T01:50:17.036Z,22.23
2023-01-29T01:52:46.493Z,21.00
2023-01-29T01:55:17.280Z,21.85
2023-01-29T01:57:45.835Z,22.05
2023-01-29T02:00:15.892Z,21.98
2023-01-29T02:03:02.876Z,21.65
2023-01-29T02:05:48.765Z,21.67
2023-01-29T02:08:34.063Z,20.65
2023-01-29T02:11:03.632Z,21.60
2023-01-29T02:13:31.775Z,21.33
2023-01-29T02:16:00.032Z,19.65
2023-01-29T02:18:28.115Z,20.65
2023-01-29T02:21:24.939Z,19.75
2023-01-29T02:24:32.962Z,19.95
2023-01-29T02:27:08.220Z,19.75
2023-01-29T02:29:44.239Z,20.02
2023-01-29T02:32:19.604Z,20.13
2023-01-29T02:35:09.558Z,19.90
2023-01-29T02:37:40.351Z,20.30
2023-01-29T02:40:14.524Z,19.10
2023-01-29T02:42:47.308Z,19.10
2023-01-29T02:45:17.670Z,19.27
2023-01-29T02:47:48.617Z,19.48
2023-01-29T02:50:19.543Z,18.58
2023-01-29T02:52:54.264Z,18.95
2023-01-29T02:55:24.164Z,19.23
2023-01-29T02:57:53.055Z,18.77
2023-01-29T03:00:23.755Z,18.50
2023-01-29T03:02:54.824Z,18.35
2023-01-29T03:05:26.083Z,17.67
2023-01-29T03:07:55.867Z,18.08
2023-01-29T03:10:36.815Z,18.67
2023-01-29T03:13:07.668Z,17.52
2023-01-29T03:15:42.494Z,17.42
2023-01-29T03:18:27.645Z,18.08
2023-01-29T03:21:01.558Z,18.45
2023-01-29T03:23:50.094Z,17.95
2023-01-29T03:26:37.611Z,17.05
2023-01-29T03:29:23.127Z,17.73
2023-01-29T03:32:05.273Z,17.52
2023-01-29T03:34:39.011Z,17.50
2023-01-29T03:37:09.353Z,17.17
2023-01-29T03:39:38.088Z,16.42
2023-01-29T03:42:13.353Z,16.75
2023-01-29T03:44:48.928Z,17.08
2023-01-29T03:47:28.046Z,16.65
2023-01-29T03:49:59.449Z,16.48
2023-01-29T03:52:29.850Z,16.33
2023-01-29T03:55:02.404Z,16.52
2023-01-29T03:57:36.563Z,16.80
2023-01-29T04:00:10.242Z,16.48
2023-01-29T04:02:48.958Z,16.08
2023-01-29T04:05:20.114Z,16.17
2023-01-29T04:08:07.977Z,16.50
2023-01-29T04:10:36.547Z,15.27
2023-01-29T04:13:09.042Z,16.83
2023-01-29T04:15:39.513Z,15.95
2023-01-29T04:18:09.291Z,15.60
2023-01-29T04:20:56.148Z,15.70
2023-01-29T04:23:25.887Z,16.05
2023-01-29T04:25:58.624Z,15.65
2023-01-29T04:28:29.215Z,15.68
2023-01-29T04:30:59.947Z,14.63
2023-01-29T04:33:34.995Z,14.98
2023-01-29T04:36:19.287Z,16.02
2023-01-29T04:38:55.771Z,15.13
2023-01-29T04:41:25.850Z,15.40
2023-01-29T04:44:00.071Z,14.95
2023-01-29T04:46:29.179Z,15.07
2023-01-29T04:49:19.240Z,14.18
2023-01-29T04:51:51.077Z,14.43
2023-01-29T04:54:23.903Z,14.73
2023-01-29T04:56:54.659Z,15.07
2023-01-29T04:59:24.914Z,14.93
2023-01-29T05:01:53.293Z,14.68
2023-01-29T05:04:22.907Z,13.70
2023-01-29T05:06:51.132Z,14.23
2023-01-29T05:09:19.258Z,14.77
2023-01-29T05:11:47.625Z,13.48
2023-01-29T05:14:15.858Z,14.30
2023-01-29T05:16:44.963Z,13.05
2023-01-29T05:19:13.935Z,14.23
2023-01-29T05:21:44.691Z,13.77
2023-01-29T05:24:14.278Z,13.70
2023-01-29T05:27:00.188Z,13.43
2023-01-29T05:29:28.549Z,14.10
2023-01-29T05:31:56.844Z,12.90
2023-01-29T05:34:25.036Z,13.68
2023-01-29T05:36:54.605Z,13.10
2023-01-29T05:39:22.795Z,14.20
2023-01-29T05:41:50.853Z,13.70
2023-01-29T05:44:18.907Z,12.93
2023-01-29T05:46:47.039Z,13.13
2023-01-29T05:49:15.178Z,12.73
2023-01-29T05:51:43.351Z,12.80
2023-01-29T05:54:14.058Z,11.93
2023-01-29T05:56:42.187Z,12.75
2023-01-29T05:59:10.249Z,12.57
2023-01-29T06:01:38.371Z,12.98
2023-01-29T06:04:06.589Z,12.57
2023-01-29T06:06:34.687Z,12.50
2023-01-29T06:09:02.827Z,11.93
2023-01-29T06:11:32.274Z,12.25
2023-01-29T06:14:01.439Z,11.90
2023-01-29T06:16:29.724Z,11.70
2023-01-29T06:18:57.928Z,11.50
2023-01-29T06:21:25.996Z,11.85
2023-01-29T06:23:54.163Z,11.60
2023-01-29T06:26:22.298Z,11.85
2023-01-29T06:28:51.879Z,10.95
2023-01-29T06:31:36.689Z,11.90
2023-01-29T06:34:06.255Z,11.30
2023-01-29T06:36:34.276Z,11.48
2023-01-29T06:39:02.376Z,11.02
2023-01-29T06:41:30.407Z,11.07
2023-01-29T06:43:59.925Z,10.88
2023-01-29T06:46:28.004Z,11.38
2023-01-29T06:48:58.747Z,10.93
2023-01-29T06:51:26.882Z,10.80
2023-01-29T06:53:56.193Z,9.98
2023-01-29T06:56:24.410Z,10.27
2023-01-29T06:58:52.465Z,10.82
2023-01-29T07:01:35.246Z,10.07
2023-01-29T07:04:04.179Z,10.55
2023-01-29T07:06:32.347Z,10.95
2023-01-29T07:09:00.469Z,10.90
2023-01-29T07:11:28.519Z,11.65
2023-01-29T07:13:56.663Z,11.68
2023-01-29T07:16:26.560Z,12.07
2023-01-29T07:18:54.817Z,11.07
2023-01-29T07:21:22.869Z,13.68
2023-01-29T07:23:50.960Z,17.95
2023-01-29T07:26:19.025Z,17.98
2023-01-29T07:28:47.115Z,16.52
2023-01-29T07:31:15.554Z,19.85
2023-01-29T07:33:45.786Z,19.83
2023-01-29T07:36:14.011Z,23.65
2023-01-29T07:38:42.120Z,22.65
2023-01-29T07:41:10.947Z,22.13
2023-01-29T07:43:38.990Z,24.00
2023-01-29T07:46:07.215Z,23.92
2023-01-29T07:48:35.309Z,25.65
2023-01-29T07:51:04.994Z,24.77
2023-01-29T07:53:33.172Z,23.58
2023-01-29T07:56:02.467Z,23.02
2023-01-29T07:58:30.583Z,23.08
2023-01-29T08:00:58.785Z,22.98
2023-01-29T08:03:26.987Z,23.10
2023-01-29T08:05:55.210Z,25.60
2023-01-29T08:08:25.855Z,28.60
2023-01-29T08:10:53.953Z,27.73
2023-01-29T08:13:21.989Z,29.25
2023-01-29T08:15:50.163Z,30.15
2023-01-29T08:18:18.235Z,31.00
2023-01-29T08:20:46.437Z,39.05
2023-01-29T08:23:16.477Z,40.22
2023-01-29T08:25:46.062Z,40.63
2023-01-29T08:28:14.235Z,39.33
2023-01-29T08:30:44.092Z,39.13
2023-01-29T08:33:12.309Z,39.50
2023-01-29T08:35:41.281Z,38.40
2023-01-29T08:38:10.592Z,38.05
2023-01-29T08:40:39.070Z,40.25
2023-01-29T08:43:09.601Z,39.80
2023-01-29T08:45:38.597Z,41.55
2023-01-29T08:48:07.057Z,44.17
2023-01-29T08:50:35.478Z,41.28
2023-01-29T08:53:04.045Z,45.75
2023-01-29T08:55:32.108Z,47.50
2023-01-29T08:58:00.263Z,49.85
2023-01-29T09:00:29.750Z,48.75
2023-01-29T09:02:59.591Z,48.13
2023-01-29T09:05:27.873Z,50.08
2023-01-29T09:07:55.968Z,65.65
2023-01-29T09:10:24.463Z,76.45
2023-01-29T09:12:52.639Z,81.40
2023-01-29T09:15:21.174Z,71.13
2023-01-29T09:17:50.863Z,79.05
2023-01-29T09:20:19.574Z,71.38
2023-01-29T09:22:47.695Z,71.65
2023-01-29T09:25:16.114Z,75.72
2023-01-29T09:27:44.325Z,74.57
2023-01-29T09:30:13.838Z,87.10
2023-01-29T09:32:57.268Z,87.75
2023-01-29T09:35:27.212Z,83.75
2023-01-29T09:37:55.659Z,85.95
2023-01-29T09:40:27.034Z,88.53
2023-01-29T09:42:57.762Z,88.53
2023-01-29T09:45:26.345Z,90.65
2023-01-29T09:47:54.442Z,87.05
2023-01-29T09:50:25.040Z,86.90
2023-01-29T09:52:57.026Z,83.63
2023-01-29T09:55:27.621Z,78.75
2023-01-29T09:57:57.101Z,80.43
2023-01-29T10:00:27.787Z,78.07
2023-01-29T10:05:53.972Z,76.15
2023-01-29T10:08:51.743Z,74.43
2023-01-29T10:11:26.299Z,76.68
2023-01-29T10:14:01.210Z,74.13
2023-01-29T10:16:37.042Z,75.38
2023-01-29T10:19:30.740Z,72.97
2023-01-29T10:22:15.173Z,73.03
2023-01-29T10:24:47.591Z,73.75
2023-01-29T10:27:16.550Z,73.13
2023-01-29T10:29:45.375Z,73.72
2023-01-29T10:32:15.897Z,73.55
2023-01-29T10:34:45.408Z,73.70
2023-01-29T10:37:16.896Z,74.35
2023-01-29T10:39:46.585Z,69.68
2023-01-29T10:42:19.791Z,70.22
2023-01-29T10:44:54.643Z,70.00
2023-01-29T10:47:40.590Z,69.78
2023-01-29T10:50:19.586Z,68.28
2023-01-29T10:53:04.187Z,69.35
2023-01-29T10:55:51.473Z,67.57
2023-01-29T10:58:24.011Z,66.53
2023-01-29T11:00:52.300Z,64.40
2023-01-29T11:03:27.882Z,63.53
2023-01-29T11:06:01.159Z,57.35
2023-01-29T11:08:30.911Z,57.15
2023-01-29T11:11:03.931Z,57.13
2023-01-29T11:13:33.730Z,55.20
2023-01-29T11:16:01.824Z,55.92
2023-01-29T11:18:29.947Z,60.13
2023-01-29T11:21:02.906Z,61.53
2023-01-29T11:23:32.277Z,66.80
2023-01-29T11:26:01.927Z,67.38
2023-01-29T11:28:37.769Z,65.28
2023-01-29T11:31:13.098Z,64.18
2023-01-29T11:33:41.260Z,63.10
2023-01-29T11:36:23.900Z,62.72
2023-01-29T11:39:15.223Z,59.17
2023-01-29T11:41:49.860Z,57.60
2023-01-29T11:44:28.239Z,57.10
2023-01-29T11:46:56.561Z,55.95
2023-01-29T11:49:34.561Z,57.13
2023-01-29T11:52:03.642Z,61.17
2023-01-29T11:54:35.568Z,61.33
2023-01-29T11:57:05.187Z,64.25
2023-01-29T11:59:44.367Z,67.35
2023-01-29T12:02:19.301Z,63.33
2023-01-29T12:04:47.570Z,63.13
2023-01-29T12:07:16.405Z,64.38
2023-01-29T12:09:50.554Z,63.00
2023-01-29T12:12:29.117Z,61.38
2023-01-29T12:15:17.893Z,59.95
2023-01-29T12:17:48.860Z,59.50
2023-01-29T12:20:19.711Z,60.22
2023-01-29T12:22:50.522Z,59.92
2023-01-29T12:25:22.425Z,58.60
2023-01-29T12:27:54.732Z,58.28
2023-01-29T12:30:25.019Z,58.22
2023-01-29T12:32:57.644Z,54.03
2023-01-29T12:35:27.203Z,56.30
2023-01-29T12:37:57.678Z,55.40
2023-01-29T12:40:27.370Z,56.95
2023-01-29T12:42:57.763Z,54.25
2023-01-29T12:45:26.532Z,54.03
2023-01-29T12:47:56.748Z,50.30
2023-01-29T12:50:28.355Z,51.47
2023-01-29T12:52:57.643Z,52.28
2023-01-29T12:55:26.614Z,51.20
2023-01-29T12:57:58.116Z,51.38
2023-01-29T13:00:28.077Z,50.20
2023-01-29T13:02:58.368Z,47.83
2023-01-29T13:05:27.651Z,46.80
2023-01-29T13:07:58.922Z,46.25
2023-01-29T13:10:29.395Z,44.92
2023-01-29T13:13:01.084Z,43.53
2023-01-29T13:15:31.427Z,42.70
2023-01-29T13:18:00.618Z,48.28
2023-01-29T13:20:30.450Z,47.38
2023-01-29T13:23:00.629Z,45.58
2023-01-29T13:25:28.956Z,44.45
2023-01-29T13:27:58.505Z,44.45
2023-01-29T13:30:28.461Z,46.00
2023-01-29T13:33:09.296Z,44.08
2023-01-29T13:35:39.368Z,45.97
2023-01-29T13:38:07.639Z,46.85
2023-01-29T13:40:35.885Z,46.63
2023-01-29T13:43:05.422Z,45.78
2023-01-29T13:45:36.949Z,48.88
2023-01-29T13:48:10.923Z,46.67
2023-01-29T13:50:40.037Z,45.38
2023-01-29T13:53:08.800Z,45.83
2023-01-29T13:55:37.476Z,45.33
2023-01-29T13:58:07.512Z,47.15
2023-01-29T14:00:57.015Z,45.17
2023-01-29T14:04:04.773Z,45.50
2023-01-29T14:06:52.646Z,45.80
2023-01-29T14:10:05.860Z,52.92
2023-01-29T14:12:44.820Z,51.72
2023-01-29T14:15:30.716Z,54.97
2023-01-29T14:18:17.225Z,54.15
2023-01-29T14:21:06.150Z,52.78
2023-01-29T14:23:41.711Z,54.63
2023-01-29T14:26:28.888Z,52.83
2023-01-29T14:29:00.204Z,53.05
2023-01-29T14:31:43.833Z,51.88
2023-01-29T14:34:17.908Z,51.67
2023-01-29T14:36:46.388Z,49.42
2023-01-29T14:39:22.519Z,49.60
2023-01-29T14:41:51.188Z,48.83
2023-01-29T14:44:51.786Z,47.83
2023-01-29T14:47:22.110Z,48.03
2023-01-29T14:49:53.920Z,45.92
2023-01-29T14:52:23.348Z,44.78
2023-01-29T14:54:51.606Z,45.38
2023-01-29T14:57:19.746Z,44.28
2023-01-29T14:59:50.934Z,43.92
2023-01-29T15:02:22.446Z,46.78
2023-01-29T15:04:52.011Z,44.60
2023-01-29T15:07:26.468Z,42.05
2023-01-29T15:10:01.349Z,41.45
2023-01-29T15:12:44.831Z,42.05
2023-01-29T15:15:17.058Z,41.47
2023-01-29T15:17:53.007Z,43.20
2023-01-29T15:20:42.082Z,42.47
2023-01-29T15:23:25.577Z,42.80
2023-01-29T15:25:55.014Z,42.55
2023-01-29T15:28:23.187Z,41.00
2023-01-29T15:30:53.092Z,41.80
2023-01-29T15:33:22.676Z,41.75
2023-01-29T15:35:53.703Z,40.67
2023-01-29T15:38:27.381Z,40.25
2023-01-29T15:40:56.631Z,38.88
2023-01-29T15:43:26.005Z,39.55
2023-01-29T15:45:54.896Z,38.55
2023-01-29T15:48:26.403Z,38.28
2023-01-29T15:50:55.108Z,37.90
2023-01-29T15:53:28.361Z,38.03
2023-01-29T15:55:58.169Z,36.58
2023-01-29T15:58:29.800Z,36.72
2023-01-29T16:00:58.219Z,36.10
2023-01-29T16:03:29.227Z,36.22
2023-01-29T16:05:57.556Z,35.83
2023-01-29T16:08:26.519Z,36.78
2023-01-29T16:10:56.388Z,36.20
2023-01-29T16:13:25.767Z,36.05
2023-01-29T16:15:57.651Z,35.67
2023-01-29T16:18:31.115Z,33.75
2023-01-29T16:20:59.680Z,33.70
2023-01-29T16:23:28.726Z,33.88
2023-01-29T16:25:57.698Z,34.65
2023-01-29T16:28:26.075Z,33.90
2023-01-29T16:30:56.879Z,35.08
2023-01-29T16:33:25.601Z,34.53
2023-01-29T16:35:55.228Z,37.10
2023-01-29T16:38:28.817Z,34.70
2023-01-29T16:41:06.992Z,35.53
2023-01-29T16:43:53.328Z,34.20
2023-01-29T16:46:32.793Z,38.33
2023-01-29T16:49:01.143Z,59.35
2023-01-29T16:51:31.523Z,46.50
2023-01-29T16:54:01.171Z,50.80
2023-01-29T16:56:31.033Z,54.25
2023-01-29T16:58:59.204Z,57.58
2023-01-29T17:01:28.160Z,58.00
2023-01-29T17:04:00.934Z,69.28
2023-01-29T17:06:32.033Z,68.90
2023-01-29T17:09:00.251Z,70.95
2023-01-29T17:11:32.068Z,77.57
2023-01-29T17:14:00.444Z,83.93
2023-01-29T17:16:30.176Z,81.20
2023-01-29T17:18:58.358Z,76.95
2023-01-29T17:21:26.504Z,78.75
2023-01-29T17:23:56.010Z,77.25
2023-01-29T17:26:24.964Z,77.75
2023-01-29T17:28:53.369Z,75.20
2023-01-29T17:31:21.541Z,79.00
2023-01-29T17:33:49.731Z,86.90
2023-01-29T17:36:18.427Z,95.50
2023-01-29T17:38:46.860Z,96.70
2023-01-29T17:41:19.542Z,95.50
2023-01-29T17:43:47.802Z,100.47
2023-01-29T17:46:16.660Z,97.07
2023-01-29T17:48:45.199Z,98.10
2023-01-29T17:51:14.748Z,91.40
2023-01-29T17:53:45.984Z,87.72
2023-01-29T17:56:20.026Z,84.45
2023-01-29T17:58:48.651Z,80.20
2023-01-29T18:01:16.735Z,79.18
2023-01-29T18:03:48.652Z,78.82
2023-01-29T18:06:28.437Z,75.93
2023-01-29T18:08:57.830Z,74.78
2023-01-29T18:11:28.352Z,70.90
2023-01-29T18:13:56.685Z,65.50
2023-01-29T18:16:25.454Z,67.75
2023-01-29T18:18:54.054Z,64.43
2023-01-29T18:21:22.706Z,64.38
2023-01-29T18:23:51.545Z,58.42
2023-01-29T18:26:19.682Z,60.63
2023-01-29T18:28:49.313Z,65.63
2023-01-29T18:31:17.630Z,62.90
2023-01-29T18:33:45.960Z,65.47
2023-01-29T18:36:14.979Z,64.63
2023-01-29T18:38:43.405Z,61.22
2023-01-29T18:41:11.885Z,78.05
2023-01-29T18:43:40.080Z,76.13
2023-01-29T18:46:09.672Z,76.38
2023-01-29T18:48:38.338Z,73.78
2023-01-29T18:51:07.281Z,76.63
2023-01-29T18:53:35.345Z,74.10
2023-01-29T18:56:05.087Z,74.72
2023-01-29T18:58:36.193Z,75.32
2023-01-29T19:01:09.075Z,76.72
2023-01-29T19:03:38.895Z,73.82
2023-01-29T19:06:07.921Z,74.00
2023-01-29T19:08:36.056Z,73.90
2023-01-29T19:11:08.242Z,71.63
2023-01-29T19:13:36.766Z,69.60
2023-01-29T19:16:08.007Z,68.70
2023-01-29T19:18:36.130Z,66.43
2023-01-29T19:21:08.996Z,64.25
2023-01-29T19:23:37.170Z,55.75
2023-01-29T19:26:05.882Z,53.40
2023-01-29T19:28:33.983Z,55.97
2023-01-29T19:31:02.340Z,54.83
2023-01-29T19:33:30.543Z,54.78
2023-01-29T19:35:58.779Z,54.58
2023-01-29T19:38:28.255Z,56.22
2023-01-29T19:40:56.457Z,54.53
2023-01-29T19:43:24.755Z,52.35
2023-01-29T19:45:58.259Z,50.50
2023-01-29T19:48:26.525Z,51.30
2023-01-29T19:50:54.781Z,50.88
2023-01-29T19:53:23.230Z,50.92
2023-01-29T19:56:00.150Z,52.58
2023-01-29T19:58:28.502Z,50.97
2023-01-29T20:00:57.699Z,53.67
2023-01-29T20:03:26.506Z,50.80
2023-01-29T20:05:54.906Z,53.17
2023-01-29T20:08:24.015Z,53.53
2023-01-29T20:10:52.338Z,54.60
2023-01-29T20:13:22.242Z,52.20
2023-01-29T20:15:51.131Z,52.83
2023-01-29T20:18:19.611Z,52.83
2023-01-29T20:20:49.003Z,53.28
2023-01-29T20:23:31.697Z,52.53
2023-01-29T20:26:05.402Z,56.60
2023-01-29T20:28:35.859Z,63.72
2023-01-29T20:31:04.331Z,58.88
2023-01-29T20:33:33.706Z,57.92
2023-01-29T20:36:02.874Z,59.60
2023-01-29T20:38:31.927Z,57.63
2023-01-29T20:41:04.673Z,57.65
2023-01-29T20:43:34.372Z,56.42
2023-01-29T20:46:02.865Z,56.20
2023-01-29T20:48:31.342Z,56.05
2023-01-29T20:51:05.266Z,55.10
2023-01-29T20:53:33.517Z,56.58
2023-01-29T20:56:04.186Z,54.05
2023-01-29T20:58:34.158Z,53.70
2023-01-29T21:01:02.538Z,53.47
2023-01-29T21:03:30.982Z,52.88
2023-01-29T21:06:00.002Z,51.70
2023-01-29T21:08:28.249Z,51.03
2023-01-29T21:10:56.619Z,49.58
2023-01-29T21:13:24.908Z,49.53
2023-01-29T21:15:54.541Z,49.42
2023-01-29T21:18:22.806Z,48.90
2023-01-29T21:20:51.063Z,47.38
2023-01-29T21:23:19.325Z,48.50
2023-01-29T21:25:48.213Z,46.47
2023-01-29T21:28:16.762Z,46.78
2023-01-29T21:30:45.076Z,45.10
2023-01-29T21:33:14.872Z,46.50
2023-01-29T21:35:43.155Z,46.00
2023-01-29T21:38:11.558Z,44.40
2023-01-29T21:40:39.758Z,43.47
2023-01-29T21:43:12.729Z,42.88
2023-01-29T21:45:41.110Z,43.45
2023-01-29T21:48:09.403Z,43.35
2023-01-29T21:50:39.188Z,41.72
2023-01-29T21:53:07.511Z,42.15
2023-01-29T21:55:35.759Z,41.83
2023-01-29T21:58:04.445Z,41.00
2023-01-29T22:00:32.674Z,40.72
2023-01-29T22:03:01.041Z,40.30
2023-01-29T22:05:30.351Z,39.28
2023-01-29T22:08:00.112Z,38.20
2023-01-29T22:10:28.998Z,39.38
2023-01-29T22:12:57.988Z,38.78
2023-01-29T22:15:26.293Z,38.40
2023-01-29T22:17:54.754Z,37.90
2023-01-29T22:20:29.803Z,36.67
2023-01-29T22:23:00.778Z,36.85
2023-01-29T22:25:29.306Z,35.97
2023-01-29T22:27:57.568Z,37.95
2023-01-29T22:30:26.062Z,36.53
2023-01-29T22:32:54.311Z,36.60
2023-01-29T22:35:22.652Z,35.20
2023-01-29T22:37:50.876Z,33.85
2023-01-29T22:40:21.163Z,34.45
2023-01-29T22:42:49.694Z,33.50
2023-01-29T22:45:18.116Z,34.13
2023-01-29T22:47:46.391Z,32.80
2023-01-29T22:50:14.952Z,32.72
2023-01-29T22:52:54.264Z,33.58
2023-01-29T22:55:24.228Z,33.05
2023-01-29T22:57:53.584Z,30.48
2023-01-29T23:00:22.427Z,31.85
2023-01-29T23:02:50.935Z,32.00
2023-01-29T23:05:19.326Z,31.55
2023-01-29T23:07:47.536Z,31.13
2023-01-29T23:10:16.442Z,28.95
2023-01-29T23:12:46.365Z,29.98
2023-01-29T23:15:14.578Z,28.88
2023-01-29T23:17:42.753Z,29.33
2023-01-29T23:20:12.460Z,28.05
2023-01-29T23:22:40.723Z,28.20
2023-01-29T23:25:11.960Z,28.08
2023-01-29T23:27:39.416Z,28.50
2023-01-29T23:30:11.173Z,28.15
2023-01-29T23:32:39.551Z,27.55
2023-01-29T23:35:08.853Z,27.02
2023-01-29T23:37:37.032Z,26.77
2023-01-29T23:40:05.903Z,26.73
2023-01-29T23:42:34.079Z,26.75
2023-01-29T23:45:02.344Z,27.40
2023-01-29T23:47:31.987Z,25.85
2023-01-29T23:50:00.263Z,26.65
2023-01-29T23:52:28.525Z,25.35
2023-01-29T23:54:56.878Z,25.70
2023-01-29T23:57:25.186Z,24.60
2023-01-29T23:59:53.532Z,24.90
